createdAt,value
2023-02-22T00:00:48.892Z,26.38
2023-02-22T00:05:47.080Z,21.15
2023-02-22T00:10:42.140Z,20.73
2023-02-22T00:13:11.518Z,19.85
2023-02-22T00:15:41.498Z,20.48
2023-02-22T00:18:12.053Z,25.45
2023-02-22T00:20:40.093Z,19.92
2023-02-22T00:23:09.694Z,27.05
2023-02-22T00:25:37.144Z,27.85
2023-02-22T00:28:05.074Z,22.67
2023-02-22T00:30:33.759Z,24.55
2023-02-22T00:33:00.970Z,24.40
2023-02-22T00:35:30.041Z,18.95
2023-02-22T00:37:59.594Z,24.80
2023-02-22T00:42:55.112Z,30.65
2023-02-22T00:45:24.338Z,23.80
2023-02-22T00:47:51.830Z,26.95
2023-02-22T00:50:19.534Z,29.63
2023-02-22T00:52:46.404Z,23.20
2023-02-22T00:55:22.746Z,20.17
2023-02-22T00:57:50.095Z,27.73
2023-02-22T01:00:25.697Z,21.13
2023-02-22T01:02:52.641Z,22.98
2023-02-22T01:05:23.092Z,21.17
2023-02-22T01:07:50.489Z,21.63
2023-02-22T01:10:20.553Z,21.38
2023-02-22T01:12:48.571Z,26.08
2023-02-22T01:15:17.263Z,21.80
2023-02-22T01:17:44.135Z,21.98
2023-02-22T01:20:14.843Z,29.45
2023-02-22T01:22:47.610Z,23.67
2023-02-22T01:25:18.982Z,24.00
2023-02-22T01:27:45.958Z,25.27
2023-02-22T01:30:15.140Z,21.77
2023-02-22T01:32:42.984Z,20.67
2023-02-22T01:35:18.475Z,26.70
2023-02-22T01:37:45.866Z,27.30
2023-02-22T01:40:26.455Z,20.48
2023-02-22T01:42:55.550Z,28.08
2023-02-22T01:45:34.286Z,21.50
2023-02-22T01:48:16.198Z,21.65
2023-02-22T01:51:00.097Z,28.33
2023-02-22T01:53:36.071Z,21.88
2023-02-22T01:56:04.564Z,28.33
2023-02-22T01:58:34.832Z,21.10
2023-02-22T02:01:01.821Z,27.10
2023-02-22T02:03:35.916Z,26.83
2023-02-22T02:06:06.448Z,23.20
2023-02-22T02:09:10.796Z,23.55
2023-02-22T02:11:40.465Z,24.02
2023-02-22T02:14:08.819Z,26.52
2023-02-22T02:16:40.996Z,24.75
2023-02-22T02:19:17.079Z,23.80
2023-02-22T02:22:19.200Z,22.55
2023-02-22T02:25:10.888Z,30.08
2023-02-22T02:27:55.858Z,32.53
2023-02-22T02:30:31.765Z,24.45
2023-02-22T02:33:06.567Z,21.83
2023-02-22T02:35:41.238Z,24.50
2023-02-22T02:38:29.049Z,23.25
2023-02-22T02:41:15.396Z,26.13
2023-02-22T02:43:47.262Z,25.25
2023-02-22T02:46:26.537Z,27.70
2023-02-22T02:49:03.799Z,25.15
2023-02-22T02:51:50.156Z,36.80
2023-02-22T02:54:17.927Z,33.53
2023-02-22T02:56:46.475Z,27.45
2023-02-22T02:59:39.870Z,35.27
2023-02-22T03:02:24.652Z,35.13
2023-02-22T03:05:31.840Z,24.17
2023-02-22T03:08:07.817Z,27.88
2023-02-22T03:10:56.947Z,24.80
2023-02-22T03:13:45.558Z,25.80
2023-02-22T03:16:32.381Z,29.45
2023-02-22T03:19:23.485Z,34.28
2023-02-22T03:24:28.112Z,39.67
2023-02-22T03:27:09.951Z,25.88
2023-02-22T03:29:42.768Z,29.00
2023-02-22T03:32:16.127Z,45.67
2023-02-22T03:34:47.936Z,38.95
2023-02-22T03:37:19.356Z,36.83
2023-02-22T03:39:47.975Z,27.48
2023-02-22T03:42:37.643Z,38.13
2023-02-22T03:45:07.016Z,41.33
2023-02-22T03:47:51.314Z,33.45
2023-02-22T03:50:22.678Z,31.83
2023-02-22T03:52:49.653Z,39.63
2023-02-22T03:55:17.723Z,37.30
2023-02-22T03:57:51.823Z,34.30
2023-02-22T04:00:25.326Z,41.38
2023-02-22T04:02:52.278Z,37.03
2023-02-22T04:05:19.581Z,36.92
2023-02-22T04:07:46.450Z,34.83
2023-02-22T04:10:15.352Z,40.53
2023-02-22T04:12:42.210Z,36.28
2023-02-22T04:15:11.850Z,39.50
2023-02-22T04:17:38.661Z,36.60
2023-02-22T04:20:07.068Z,40.03
2023-02-22T04:22:34.046Z,31.25
2023-02-22T04:25:00.865Z,42.13
2023-02-22T04:27:27.737Z,37.67
2023-02-22T04:29:54.605Z,39.92
2023-02-22T04:32:21.514Z,35.20
2023-02-22T04:34:48.431Z,43.95
2023-02-22T04:37:15.442Z,41.70
2023-02-22T04:39:42.413Z,38.45
2023-02-22T04:42:09.275Z,41.67
2023-02-22T04:44:36.076Z,33.53
2023-02-22T04:47:02.931Z,35.05
2023-02-22T04:49:29.774Z,42.13
2023-02-22T04:51:56.634Z,41.47
2023-02-22T04:54:23.548Z,43.25
2023-02-22T04:56:50.480Z,42.67
2023-02-22T04:59:17.483Z,37.17
2023-02-22T05:01:44.396Z,44.30
2023-02-22T05:04:11.308Z,48.53
2023-02-22T05:06:38.183Z,44.20
2023-02-22T05:09:05.057Z,40.38
2023-02-22T05:11:31.987Z,43.17
2023-02-22T05:13:58.844Z,45.58
2023-02-22T05:16:26.457Z,43.47
2023-02-22T05:18:53.461Z,44.88
2023-02-22T05:21:20.362Z,44.33
2023-02-22T05:23:47.323Z,46.28
2023-02-22T05:26:14.186Z,44.92
2023-02-22T05:28:41.054Z,46.30
2023-02-22T05:31:09.127Z,45.88
2023-02-22T05:33:36.478Z,43.80
2023-02-22T05:36:03.556Z,45.78
2023-02-22T05:38:30.384Z,44.55
2023-02-22T05:40:57.154Z,40.80
2023-02-22T05:43:24.029Z,48.40
2023-02-22T05:45:50.983Z,44.72
2023-02-22T05:48:17.824Z,49.03
2023-02-22T05:50:44.680Z,43.40
2023-02-22T05:53:11.536Z,41.47
2023-02-22T05:55:38.351Z,43.67
2023-02-22T05:58:05.911Z,48.97
2023-02-22T06:00:32.960Z,50.10
2023-02-22T06:03:03.322Z,43.88
2023-02-22T06:05:30.696Z,49.25
2023-02-22T06:07:58.493Z,46.90
2023-02-22T06:10:25.994Z,46.92
2023-02-22T06:12:53.635Z,44.22
2023-02-22T06:15:22.560Z,42.15
2023-02-22T06:17:50.087Z,46.13
2023-02-22T06:20:19.382Z,43.67
2023-02-22T06:22:54.683Z,45.83
2023-02-22T06:25:24.501Z,43.75
2023-02-22T06:27:51.650Z,43.20
2023-02-22T06:30:22.667Z,45.05
2023-02-22T06:32:49.868Z,46.28
2023-02-22T06:35:17.469Z,42.22
2023-02-22T06:37:44.474Z,43.65
2023-02-22T06:40:11.646Z,44.95
2023-02-22T06:42:39.399Z,47.42
2023-02-22T06:45:07.463Z,45.45
2023-02-22T06:47:39.344Z,43.22
2023-02-22T06:50:06.622Z,43.05
2023-02-22T06:52:33.553Z,49.70
2023-02-22T06:55:00.687Z,48.97
2023-02-22T06:57:27.525Z,47.80
2023-02-22T06:59:54.356Z,42.45
2023-02-22T07:02:21.182Z,44.20
2023-02-22T07:04:48.031Z,50.65
2023-02-22T07:07:14.895Z,45.58
2023-02-22T07:09:41.951Z,48.05
2023-02-22T07:12:09.277Z,49.00
2023-02-22T07:14:36.174Z,42.92
2023-02-22T07:17:03.419Z,48.33
2023-02-22T07:19:30.311Z,43.53
2023-02-22T07:21:59.358Z,46.92
2023-02-22T07:24:28.464Z,46.05
2023-02-22T07:26:55.516Z,41.58
2023-02-22T07:29:22.669Z,46.80
2023-02-22T07:31:49.728Z,46.97
2023-02-22T07:34:16.701Z,45.55
2023-02-22T07:36:43.682Z,49.83
2023-02-22T07:39:11.188Z,42.53
2023-02-22T07:41:38.065Z,43.25
2023-02-22T07:44:05.201Z,42.25
2023-02-22T07:46:32.087Z,48.75
2023-02-22T07:48:58.959Z,50.45
2023-02-22T07:51:27.018Z,52.40
2023-02-22T07:53:53.920Z,47.17
2023-02-22T07:56:20.772Z,48.13
2023-02-22T07:58:47.699Z,51.88
2023-02-22T08:01:14.657Z,52.10
2023-02-22T08:03:42.543Z,45.22
2023-02-22T08:06:10.945Z,55.20
2023-02-22T08:08:38.217Z,51.80
2023-02-22T08:11:05.725Z,48.03
2023-02-22T08:13:33.018Z,54.60
2023-02-22T08:16:00.082Z,50.25
2023-02-22T08:18:27.058Z,55.60
2023-02-22T08:20:54.937Z,42.03
2023-02-22T08:23:25.641Z,47.67
2023-02-22T08:25:52.945Z,46.20
2023-02-22T08:28:23.391Z,43.10
2023-02-22T08:30:51.172Z,49.03
2023-02-22T08:33:19.725Z,46.08
2023-02-22T08:35:49.726Z,42.70
2023-02-22T08:38:29.519Z,45.78
2023-02-22T08:40:57.156Z,43.97
2023-02-22T08:43:24.254Z,43.03
2023-02-22T08:45:52.326Z,45.50
2023-02-22T08:48:20.341Z,41.67
2023-02-22T08:50:47.206Z,41.85
2023-02-22T08:53:16.358Z,47.08
2023-02-22T08:55:43.615Z,49.10
2023-02-22T08:58:10.905Z,41.60
2023-02-22T09:00:39.388Z,40.40
2023-02-22T09:03:13.580Z,44.65
2023-02-22T09:05:41.779Z,45.35
2023-02-22T09:08:08.794Z,38.28
2023-02-22T09:10:36.450Z,37.00
2023-02-22T09:13:04.147Z,40.78
2023-02-22T09:15:32.080Z,42.05
2023-02-22T09:18:00.567Z,37.17
2023-02-22T09:20:28.108Z,36.50
2023-02-22T09:22:55.502Z,36.92
2023-02-22T09:25:23.237Z,37.67
2023-02-22T09:27:52.060Z,38.47
2023-02-22T09:30:28.168Z,44.70
2023-02-22T09:32:58.365Z,36.67
2023-02-22T09:35:27.414Z,36.13
2023-02-22T09:37:56.827Z,36.05
2023-02-22T09:40:29.573Z,33.53
2023-02-22T09:43:35.810Z,35.17
2023-02-22T09:46:29.612Z,37.00
2023-02-22T09:49:32.299Z,32.83
2023-02-22T09:52:05.160Z,37.72
2023-02-22T09:54:40.981Z,35.70
2023-02-22T09:57:13.633Z,35.83
2023-02-22T09:59:53.524Z,34.30
2023-02-22T10:02:35.098Z,34.35
2023-02-22T10:05:29.398Z,32.20
2023-02-22T10:08:05.882Z,34.50
2023-02-22T10:10:39.353Z,34.17
2023-02-22T10:13:39.257Z,37.50
2023-02-22T10:16:06.210Z,34.13
2023-02-22T10:18:39.172Z,32.60
2023-02-22T10:21:19.516Z,33.47
2023-02-22T10:26:20.467Z,30.08
2023-02-22T10:29:09.304Z,31.55
2023-02-22T10:31:44.098Z,34.80
2023-02-22T10:34:15.776Z,35.65
2023-02-22T10:36:48.984Z,34.13
2023-02-22T10:39:31.560Z,36.55
2023-02-22T10:42:06.112Z,31.90
2023-02-22T10:44:37.330Z,32.75
2023-02-22T10:47:08.269Z,38.63
2023-02-22T10:49:41.234Z,32.03
2023-02-22T10:52:22.482Z,32.55
2023-02-22T10:54:51.969Z,28.65
2023-02-22T10:59:52.013Z,30.35
2023-02-22T11:02:23.595Z,28.15
2023-02-22T11:04:53.054Z,31.60
2023-02-22T11:10:03.313Z,33.70
2023-02-22T11:12:38.734Z,33.85
2023-02-22T11:15:18.863Z,34.65
2023-02-22T11:17:47.469Z,34.13
2023-02-22T11:20:25.396Z,34.80
2023-02-22T11:22:54.891Z,32.35
2023-02-22T11:27:52.946Z,30.73
2023-02-22T11:30:27.097Z,34.80
2023-02-22T11:32:58.696Z,33.00
2023-02-22T11:35:28.310Z,30.90
2023-02-22T11:38:17.651Z,29.85
2023-02-22T11:40:45.665Z,30.58
2023-02-22T11:43:20.388Z,28.95
2023-02-22T11:46:08.350Z,30.83
2023-02-22T11:48:39.530Z,30.50
2023-02-22T11:51:14.463Z,30.60
2023-02-22T11:54:25.444Z,33.47
2023-02-22T11:56:55.904Z,32.58
2023-02-22T11:59:51.542Z,41.45
2023-02-22T12:02:30.733Z,32.17
2023-02-22T12:05:09.601Z,34.53
2023-02-22T12:08:17.393Z,34.20
2023-02-22T12:11:18.409Z,36.30
2023-02-22T12:14:01.869Z,37.08
2023-02-22T12:17:03.448Z,32.15
2023-02-22T12:19:41.450Z,30.08
2023-02-22T12:22:26.687Z,31.63
2023-02-22T12:25:09.860Z,32.60
2023-02-22T12:27:51.867Z,32.75
2023-02-22T12:30:23.968Z,32.72
2023-02-22T12:33:06.585Z,28.90
2023-02-22T12:35:50.403Z,29.02
2023-02-22T12:38:40.302Z,28.13
2023-02-22T12:41:27.068Z,29.52
2023-02-22T12:43:58.872Z,31.98
2023-02-22T12:46:40.151Z,30.92
2023-02-22T12:50:05.530Z,25.88
2023-02-22T12:52:44.168Z,26.05
2023-02-22T12:55:45.794Z,26.58
2023-02-22T12:58:26.975Z,25.80
2023-02-22T13:01:17.831Z,26.40
2023-02-22T13:03:45.125Z,23.98
2023-02-22T13:06:28.120Z,23.50
2023-02-22T13:09:19.763Z,24.02
2023-02-22T13:11:55.441Z,22.55
2023-02-22T13:14:40.545Z,24.23
2023-02-22T13:17:41.429Z,23.85
2023-02-22T13:20:34.236Z,23.43
2023-02-22T13:23:15.067Z,23.00
2023-02-22T13:25:49.933Z,23.80
2023-02-22T13:28:24.159Z,22.45
2023-02-22T13:31:19.622Z,22.38
2023-02-22T13:34:16.772Z,23.42
2023-02-22T13:37:04.819Z,22.75
2023-02-22T13:39:54.681Z,21.60
2023-02-22T13:42:38.084Z,20.95
2023-02-22T13:45:35.711Z,21.40
2023-02-22T13:48:34.822Z,21.13
2023-02-22T13:51:13.765Z,21.27
2023-02-22T13:53:49.219Z,22.08
2023-02-22T13:56:19.059Z,19.35
2023-02-22T13:58:57.085Z,21.20
2023-02-22T14:01:46.254Z,21.80
2023-02-22T14:04:28.507Z,21.80
2023-02-22T14:07:25.968Z,19.85
2023-02-22T14:09:56.140Z,20.92
2023-02-22T14:12:34.873Z,19.60
2023-02-22T14:15:26.813Z,21.70
2023-02-22T14:18:01.981Z,19.25
2023-02-22T14:20:32.323Z,20.65
2023-02-22T14:23:30.130Z,19.05
2023-02-22T14:26:10.137Z,19.02
2023-02-22T14:28:43.019Z,18.67
2023-02-22T14:31:33.419Z,17.98
2023-02-22T14:34:40.225Z,21.20
2023-02-22T14:37:12.711Z,19.40
2023-02-22T14:40:12.865Z,19.65
2023-02-22T14:42:49.058Z,21.08
2023-02-22T14:45:30.100Z,20.45
2023-02-22T14:48:24.939Z,20.83
2023-02-22T14:50:53.807Z,20.25
2023-02-22T14:53:44.316Z,20.65
2023-02-22T14:56:36.320Z,19.55
2023-02-22T14:59:16.833Z,22.08
2023-02-22T15:02:01.756Z,20.63
2023-02-22T15:07:15.989Z,21.73
2023-02-22T15:09:46.585Z,21.08
2023-02-22T15:12:20.556Z,21.05
2023-02-22T15:14:47.828Z,21.63
2023-02-22T15:17:20.833Z,20.27
2023-02-22T15:19:48.909Z,21.80
2023-02-22T15:22:25.115Z,23.75
2023-02-22T15:25:12.218Z,21.30
2023-02-22T15:27:47.804Z,21.27
2023-02-22T15:30:32.535Z,22.63
2023-02-22T15:33:12.194Z,22.42
2023-02-22T15:35:39.636Z,22.15
2023-02-22T15:38:10.620Z,22.92
2023-02-22T15:40:42.895Z,22.90
2023-02-22T15:43:18.887Z,23.50
2023-02-22T15:45:46.469Z,22.55
2023-02-22T15:48:15.844Z,22.85
2023-02-22T15:53:30.730Z,23.45
2023-02-22T15:56:05.789Z,24.35
2023-02-22T15:58:32.852Z,20.30
2023-02-22T16:01:12.348Z,25.40
2023-02-22T16:03:46.349Z,23.40
2023-02-22T16:06:33.621Z,20.52
2023-02-22T16:09:10.526Z,23.88
2023-02-22T16:11:43.238Z,23.55
2023-02-22T16:14:30.416Z,21.92
2023-02-22T16:17:29.764Z,21.30
2023-02-22T16:20:01.682Z,25.30
2023-02-22T16:22:36.136Z,22.60
2023-02-22T16:25:18.423Z,23.02
2023-02-22T16:28:01.642Z,25.77
2023-02-22T16:30:32.850Z,22.67
2023-02-22T16:33:05.506Z,29.65
2023-02-22T16:35:35.418Z,26.42
2023-02-22T16:38:05.329Z,24.42
2023-02-22T16:40:39.855Z,23.80
2023-02-22T16:43:10.420Z,25.52
2023-02-22T16:45:37.589Z,23.08
2023-02-22T16:48:21.443Z,25.15
2023-02-22T16:50:51.371Z,19.63
2023-02-22T16:53:21.240Z,22.02
2023-02-22T16:55:48.666Z,25.05
2023-02-22T16:58:17.519Z,21.48
2023-02-22T17:00:44.826Z,26.27
2023-02-22T17:03:17.212Z,25.25
2023-02-22T17:05:44.638Z,25.83
2023-02-22T17:08:11.667Z,22.67
2023-02-22T17:10:38.751Z,25.98
2023-02-22T17:13:21.797Z,23.95
2023-02-22T17:15:51.461Z,23.13
2023-02-22T17:18:23.602Z,21.90
2023-02-22T17:20:52.203Z,32.13
2023-02-22T17:23:19.889Z,26.70
2023-02-22T17:25:50.939Z,24.27
2023-02-22T17:28:18.280Z,22.65
2023-02-22T17:30:48.813Z,21.73
2023-02-22T17:33:19.164Z,24.88
2023-02-22T17:35:47.060Z,29.90
2023-02-22T17:38:18.539Z,28.10
2023-02-22T17:40:55.001Z,31.27
2023-02-22T17:43:22.009Z,27.15
2023-02-22T17:45:49.539Z,26.38
2023-02-22T17:48:17.660Z,26.40
2023-02-22T17:50:46.513Z,27.30
2023-02-22T17:53:13.584Z,27.80
2023-02-22T17:55:42.336Z,31.15
2023-02-22T17:58:19.950Z,28.38
2023-02-22T18:00:50.029Z,26.67
2023-02-22T18:03:25.697Z,36.40
2023-02-22T18:05:56.319Z,28.60
2023-02-22T18:08:24.428Z,30.67
2023-02-22T18:11:02.744Z,32.10
2023-02-22T18:13:29.647Z,31.80
2023-02-22T18:16:00.170Z,30.13
2023-02-22T18:18:27.438Z,28.58
2023-02-22T18:20:59.491Z,30.52
2023-02-22T18:23:29.205Z,29.80
2023-02-22T18:28:38.021Z,30.60
2023-02-22T18:31:16.311Z,31.52
2023-02-22T18:33:44.827Z,30.70
2023-02-22T18:36:12.608Z,28.35
2023-02-22T18:38:43.626Z,31.33
2023-02-22T18:41:16.239Z,31.65
2023-02-22T18:43:43.832Z,28.85
2023-02-22T18:46:19.680Z,32.38
2023-02-22T18:48:55.858Z,29.20
2023-02-22T18:51:23.675Z,30.95
2023-02-22T18:53:54.784Z,30.55
2023-02-22T18:56:22.213Z,30.35
2023-02-22T18:58:53.931Z,28.60
2023-02-22T19:01:22.617Z,29.50
2023-02-22T19:03:49.651Z,28.55
2023-02-22T19:06:18.422Z,29.83
2023-02-22T19:08:47.066Z,29.38
2023-02-22T19:11:20.021Z,30.70
2023-02-22T19:13:48.878Z,30.20
2023-02-22T19:16:20.166Z,30.90
2023-02-22T19:18:48.620Z,31.50
2023-02-22T19:21:16.397Z,31.55
2023-02-22T19:23:47.928Z,30.75
2023-02-22T19:26:20.791Z,30.73
2023-02-22T19:28:52.130Z,30.80
2023-02-22T19:31:20.951Z,30.45
2023-02-22T19:33:51.287Z,31.58
2023-02-22T19:36:20.103Z,29.42
2023-02-22T19:38:47.192Z,30.30
2023-02-22T19:41:18.444Z,30.00
2023-02-22T19:43:47.467Z,31.38
2023-02-22T19:46:17.767Z,30.47
2023-02-22T19:48:45.505Z,32.13
2023-02-22T19:51:15.199Z,31.52
2023-02-22T19:53:43.966Z,32.65
2023-02-22T19:56:27.044Z,31.50
2023-02-22T19:58:56.072Z,31.27
2023-02-22T20:01:26.617Z,31.90
2023-02-22T20:04:05.034Z,32.50
2023-02-22T20:06:34.973Z,31.70
2023-02-22T20:09:02.728Z,31.80
2023-02-22T20:11:30.689Z,32.67
2023-02-22T20:13:57.658Z,31.58
2023-02-22T20:16:24.610Z,34.40
2023-02-22T20:18:51.652Z,33.42
2023-02-22T20:21:20.087Z,32.72
2023-02-22T20:23:47.359Z,33.10
2023-02-22T20:26:22.579Z,33.88
2023-02-22T20:28:51.062Z,34.42
2023-02-22T20:31:19.613Z,34.42
2023-02-22T20:33:49.145Z,34.70
2023-02-22T20:36:18.393Z,35.47
2023-02-22T20:38:45.790Z,33.80
2023-02-22T20:41:16.443Z,32.97
2023-02-22T20:43:43.603Z,32.05
2023-02-22T20:46:10.559Z,34.85
2023-02-22T20:48:37.449Z,34.72
2023-02-22T20:51:09.061Z,36.38
2023-02-22T20:53:36.824Z,33.38
2023-02-22T20:56:04.531Z,33.65
2023-02-22T20:58:31.554Z,32.97
2023-02-22T21:01:05.120Z,32.78
2023-02-22T21:03:35.998Z,31.00
2023-02-22T21:06:06.329Z,32.70
2023-02-22T21:08:33.391Z,32.95
2023-02-22T21:11:00.591Z,33.72
2023-02-22T21:13:27.655Z,33.00
2023-02-22T21:15:54.623Z,34.67
2023-02-22T21:18:23.376Z,34.72
2023-02-22T21:20:51.925Z,33.05
2023-02-22T21:23:18.924Z,32.97
2023-02-22T21:25:53.244Z,32.58
2023-02-22T21:28:20.608Z,32.60
2023-02-22T21:30:47.758Z,35.40
2023-02-22T21:33:16.025Z,32.05
2023-02-22T21:35:50.396Z,33.45
2023-02-22T21:38:17.843Z,35.10
2023-02-22T21:40:47.935Z,34.13
2023-02-22T21:43:16.625Z,33.22
2023-02-22T21:45:43.698Z,34.10
2023-02-22T21:48:10.581Z,34.13
2023-02-22T21:50:38.288Z,34.40
2023-02-22T21:53:06.482Z,34.50
2023-02-22T21:55:33.912Z,33.30
2023-02-22T21:58:00.773Z,34.20
2023-02-22T22:00:31.715Z,32.75
2023-02-22T22:03:12.620Z,33.90
2023-02-22T22:05:40.247Z,34.13
2023-02-22T22:08:13.264Z,34.28
2023-02-22T22:10:40.131Z,33.80
2023-02-22T22:13:09.126Z,34.42
2023-02-22T22:15:37.347Z,33.60
2023-02-22T22:18:08.059Z,34.00
2023-02-22T22:20:38.328Z,32.50
2023-02-22T22:23:06.908Z,35.17
2023-02-22T22:25:38.082Z,33.87
2023-02-22T22:28:11.512Z,34.58
2023-02-22T22:30:38.587Z,33.78
2023-02-22T22:33:06.222Z,34.63
2023-02-22T22:35:33.575Z,36.92
2023-02-22T22:38:01.119Z,34.08
2023-02-22T22:40:28.448Z,35.50
2023-02-22T22:42:55.507Z,34.38
2023-02-22T22:45:22.916Z,35.25
2023-02-22T22:47:49.816Z,34.92
2023-02-22T22:50:27.589Z,35.85
2023-02-22T22:52:57.130Z,34.78
2023-02-22T22:57:53.646Z,35.13
2023-02-22T23:00:30.294Z,35.53
2023-02-22T23:02:57.385Z,38.70
2023-02-22T23:05:29.334Z,34.92
2023-02-22T23:07:57.452Z,36.78
2023-02-22T23:10:27.478Z,36.45
2023-02-22T23:12:56.528Z,37.92
2023-02-22T23:15:25.142Z,31.80
2023-02-22T23:17:56.263Z,35.37
2023-02-22T23:20:26.268Z,36.45
2023-02-22T23:22:55.164Z,38.20
2023-02-22T23:25:22.382Z,35.13
2023-02-22T23:27:49.633Z,40.22
2023-02-22T23:30:18.652Z,37.20
2023-02-22T23:32:46.678Z,42.38
2023-02-22T23:35:15.338Z,41.92
2023-02-22T23:37:42.855Z,42.73
2023-02-22T23:40:17.421Z,44.38
2023-02-22T23:42:57.611Z,47.45
2023-02-22T23:45:24.867Z,48.22
2023-02-22T23:47:57.247Z,40.50
2023-02-22T23:50:26.598Z,44.28
2023-02-22T23:52:56.983Z,48.95
2023-02-22T23:55:26.303Z,53.75
2023-02-22T23:57:59.239Z,51.60
